Millwood, Missouri
Current Conditions -  °F | °C
As of 3:54 PM on Saturday 25 Oct 2014 (Local Time) from KSET Reporting Station
Haze Haze  
Wind Chill: 80°   Ceiling: Unl
Heat Index: 80°   Visibility: 5mi
Dew Point: 46°   Wind: 8mph
Humidity: 30%   Direction: 300°WNW
Pressure: 30"   Gusts: NA
Location:  39.1404°N, 91.0631°W
Report Text: KSET 252054Z AUTO 30007KT 5SM HZ CLR 27/08 A3000 RMK AO2 SLP155 T02670078 56007
Loading
Personal Weather Stations






























Interactive Weather Map New forecast layout! Learn more

10-Day Weather Forecast

Advertisements
Track Severe Weather on mobile